Página principal
METAR-TAF:

METAR-TAF

Aeroportos :

Atar, Mauritânia

latitude: 20-30-24N, longitude: 013-02-35W, altura: 231 m

Observação actual do tempo

O boletim foi feito há 1 hora e 52 minutos, às 15:00 UTC
Vento 10 kt de norte
Temperatura 41°C
Humidade 14%
Pressão 1015 hPa
Visibilidade: 7000 m

METAR: GQPA 181500Z 36010KT 7000 NSC 41/08 Q1015

Hora: 16:52 (16:52 UTC)


TAF: em falta

Observações e previsões do tempo de mais de 4000 aeroportos (mensagens METAR e TAF).

As estações disponíveis são os pontos amarelos e vermelhos sobre o mapa.

Mova o rato sobre o mapa para ver o nome da estação.

Depois clique no ponto para visualizar as observações e previsões meteorológicas.

Para alterar o mapa : clique nos botões verdes com uma cruz preta para aumentar o zoom; no botão verde com uma pitada de zoom; ou nas setas verdes para mapas adjacentes.


METAR-TAF: